createdAt,value
2022-12-11T00:02:50.447Z,-1.30
2022-12-11T00:07:53.599Z,-1.30
2022-12-11T00:12:56.804Z,-1.30
2022-12-11T00:18:01.212Z,-1.20
2022-12-11T00:23:05.540Z,-1.20
2022-12-11T00:28:08.716Z,-1.20
2022-12-11T00:33:14.598Z,-1.30
2022-12-11T00:38:19.795Z,-1.30
2022-12-11T00:43:22.967Z,-1.20
2022-12-11T00:48:27.438Z,-1.20
2022-12-11T00:53:30.846Z,-1.30
2022-12-11T00:58:33.945Z,-1.30
2022-12-11T01:03:39.048Z,-1.40
2022-12-11T01:08:42.335Z,-1.30
2022-12-11T01:13:46.326Z,-1.30
2022-12-11T01:18:50.792Z,-1.30
2022-12-11T01:23:53.941Z,-1.40
2022-12-11T01:28:57.185Z,-1.40
2022-12-11T01:34:01.591Z,-1.20
2022-12-11T01:39:04.660Z,-1.20
2022-12-11T01:44:28.738Z,-1.30
2022-12-11T01:49:33.368Z,-1.30
2022-12-11T01:54:36.702Z,-1.40
2022-12-11T01:59:44.174Z,-1.40
2022-12-11T02:04:49.451Z,-1.30
2022-12-11T02:09:52.563Z,-1.30
2022-12-11T02:15:03.460Z,-1.30
2022-12-11T02:20:15.009Z,-1.30
2022-12-11T02:25:25.224Z,-1.20
2022-12-11T02:30:30.303Z,-1.30
2022-12-11T02:35:34.660Z,-1.10
2022-12-11T02:40:40.905Z,-1.30
2022-12-11T02:45:46.895Z,-1.30
2022-12-11T02:50:53.284Z,-1.30
2022-12-11T02:56:01.336Z,-1.30
2022-12-11T03:01:06.093Z,-1.30
2022-12-11T03:06:13.804Z,-1.30
2022-12-11T03:11:16.904Z,-1.30
2022-12-11T03:16:30.944Z,-1.20
2022-12-11T03:21:40.337Z,-1.20
2022-12-11T03:26:55.990Z,-1.20
2022-12-11T03:32:07.561Z,-1.20
2022-12-11T03:37:11.568Z,-1.20
2022-12-11T03:42:16.405Z,-1.20
2022-12-11T03:47:24.351Z,-1.20
2022-12-11T03:52:29.164Z,-1.20
2022-12-11T03:57:36.861Z,-1.20
2022-12-11T04:02:41.846Z,-1.10
2022-12-11T04:07:44.902Z,-1.00
2022-12-11T04:12:47.975Z,-1.10
2022-12-11T04:18:24.825Z,-1.20
2022-12-11T04:23:46.912Z,-1.10
2022-12-11T04:28:50.919Z,-1.20
2022-12-11T04:33:55.938Z,-1.10
2022-12-11T04:38:59.018Z,-1.10
2022-12-11T04:44:02.150Z,-1.10
2022-12-11T04:49:06.593Z,-1.10
2022-12-11T04:54:09.745Z,-1.10
2022-12-11T04:59:13.247Z,-1.10
2022-12-11T05:04:17.775Z,-1.20
2022-12-11T05:09:21.410Z,-1.20
2022-12-11T05:14:24.548Z,-1.10
2022-12-11T05:19:29.092Z,-1.10
2022-12-11T05:24:32.163Z,-1.20
2022-12-11T05:29:35.527Z,-1.30
2022-12-11T05:34:39.999Z,-1.30
2022-12-11T05:39:43.709Z,-1.40
2022-12-11T05:44:46.987Z,-1.30
2022-12-11T05:49:51.484Z,-1.40
2022-12-11T05:54:54.550Z,-1.40
2022-12-11T05:59:57.577Z,-1.50
2022-12-11T06:05:01.984Z,-1.50
2022-12-11T06:10:06.344Z,-1.70
2022-12-11T06:15:10.136Z,-1.50
2022-12-11T06:20:15.083Z,-1.60
2022-12-11T06:25:18.352Z,-1.70
2022-12-11T06:30:21.618Z,-1.60
2022-12-11T06:35:26.529Z,-1.70
2022-12-11T06:40:29.800Z,-1.70
2022-12-11T06:45:32.975Z,-1.70
2022-12-11T06:50:38.226Z,-1.70
2022-12-11T06:55:42.241Z,-1.70
2022-12-11T07:00:45.495Z,-1.50
2022-12-11T07:05:50.040Z,-1.70
2022-12-11T07:10:53.214Z,-1.50
2022-12-11T07:15:58.306Z,-1.60
2022-12-11T07:21:02.629Z,-1.80
2022-12-11T07:26:07.030Z,-1.80
2022-12-11T07:31:12.043Z,-1.80
2022-12-11T07:36:16.494Z,-1.90
2022-12-11T07:41:20.012Z,-1.90
2022-12-11T07:46:31.409Z,-1.90
2022-12-11T07:51:37.634Z,-1.80
2022-12-11T07:56:43.873Z,-1.70
2022-12-11T08:01:47.386Z,-1.70
2022-12-11T08:06:51.806Z,-1.60
2022-12-11T08:11:54.982Z,-1.50
2022-12-11T08:17:00.167Z,-1.50
2022-12-11T08:22:04.939Z,-1.40
2022-12-11T08:27:08.128Z,-1.30
2022-12-11T08:32:13.653Z,-1.30
2022-12-11T08:37:18.245Z,-1.50
2022-12-11T08:42:21.564Z,-1.70
2022-12-11T08:47:25.001Z,-1.40
2022-12-11T08:52:31.458Z,-1.50
2022-12-11T08:57:34.689Z,-1.50
2022-12-11T09:02:38.251Z,-1.60
2022-12-11T09:07:42.919Z,-1.50
2022-12-11T09:12:46.099Z,-1.20
2022-12-11T09:17:49.314Z,-1.20
2022-12-11T09:22:53.728Z,-1.30
2022-12-11T09:27:56.812Z,-1.00
2022-12-11T09:33:00.179Z,-0.90
2022-12-11T09:38:04.879Z,-1.00
2022-12-11T09:43:19.527Z,-0.80
2022-12-11T09:48:26.090Z,-0.90
2022-12-11T09:53:34.609Z,-1.00
2022-12-11T09:59:03.196Z,-1.00
2022-12-11T10:04:26.900Z,-0.80
2022-12-11T10:09:39.142Z,-0.90
2022-12-11T10:14:55.160Z,-1.00
2022-12-11T10:20:05.742Z,-0.80
2022-12-11T10:25:19.495Z,-0.70
2022-12-11T10:30:24.813Z,-1.00
2022-12-11T10:35:34.992Z,-0.80
2022-12-11T10:40:42.017Z,-0.70
2022-12-11T10:45:54.841Z,-0.70
2022-12-11T10:51:01.395Z,-0.50
2022-12-11T10:56:07.400Z,-0.50
2022-12-11T11:01:15.588Z,0.20
2022-12-11T11:06:21.029Z,0.40
2022-12-11T11:11:28.616Z,0.30
2022-12-11T11:16:32.420Z,0.20
2022-12-11T11:21:36.049Z,0.10
2022-12-11T11:27:11.621Z,0.00
2022-12-11T11:32:17.381Z,0.00
2022-12-11T11:37:30.328Z,0.00
2022-12-11T11:42:45.644Z,0.10
2022-12-11T11:47:58.722Z,0.00
2022-12-11T11:53:05.867Z,0.20
2022-12-11T11:58:17.388Z,0.30
2022-12-11T12:03:24.066Z,0.40
2022-12-11T12:08:40.348Z,0.40
2022-12-11T12:13:54.514Z,0.30
2022-12-11T12:19:05.072Z,0.30
2022-12-11T12:24:17.925Z,0.50
2022-12-11T12:29:29.779Z,0.60
2022-12-11T12:34:48.165Z,0.60
2022-12-11T12:40:00.520Z,0.50
2022-12-11T12:45:22.742Z,0.30
2022-12-11T12:50:29.918Z,0.30
2022-12-11T12:55:35.903Z,0.40
2022-12-11T13:00:43.524Z,0.40
2022-12-11T13:05:57.027Z,0.40
2022-12-11T13:11:02.693Z,0.30
2022-12-11T13:16:24.641Z,0.30
2022-12-11T13:21:31.979Z,0.30
2022-12-11T13:26:35.413Z,0.20
2022-12-11T13:31:43.996Z,0.10
2022-12-11T13:36:49.067Z,0.10
2022-12-11T13:41:54.884Z,0.00
2022-12-11T13:47:02.286Z,0.00
2022-12-11T13:52:06.704Z,0.00
2022-12-11T13:57:18.177Z,0.00
2022-12-11T14:02:27.606Z,-0.10
2022-12-11T14:07:34.487Z,0.00
2022-12-11T14:12:38.053Z,-0.10
2022-12-11T14:17:48.468Z,-0.30
2022-12-11T14:23:05.341Z,-0.20
2022-12-11T14:28:16.978Z,-0.30
2022-12-11T14:33:26.145Z,-0.40
2022-12-11T14:38:33.390Z,-0.40
2022-12-11T14:43:42.765Z,-0.60
2022-12-11T14:48:57.518Z,-0.50
2022-12-11T14:54:05.979Z,-0.60
2022-12-11T14:59:19.895Z,-0.60
2022-12-11T15:04:29.291Z,-0.60
2022-12-11T15:09:38.381Z,-0.60
2022-12-11T15:14:47.392Z,-0.50
2022-12-11T15:19:55.063Z,-0.60
2022-12-11T15:24:59.447Z,-0.60
2022-12-11T15:30:14.916Z,-0.60
2022-12-11T15:35:25.160Z,-0.70
2022-12-11T15:40:29.075Z,-0.50
2022-12-11T15:45:32.374Z,-0.70
2022-12-11T15:50:37.222Z,-0.60
2022-12-11T15:55:40.760Z,-0.60
2022-12-11T16:00:44.718Z,-0.70
2022-12-11T16:05:49.989Z,-0.70
2022-12-11T16:10:54.800Z,-0.70
2022-12-11T16:15:58.496Z,-0.80
2022-12-11T16:21:06.467Z,-0.70
2022-12-11T16:26:09.955Z,-0.70
2022-12-11T16:31:14.445Z,-0.80
2022-12-11T16:36:20.126Z,-0.60
2022-12-11T16:41:24.149Z,-0.70
2022-12-11T16:46:27.700Z,-0.50
2022-12-11T16:51:33.027Z,-0.60
2022-12-11T16:56:36.598Z,-0.80
2022-12-11T17:01:40.621Z,-0.80
2022-12-11T17:06:46.323Z,-0.70
2022-12-11T17:11:49.659Z,-0.60
2022-12-11T17:16:52.744Z,-0.60
2022-12-11T17:21:58.945Z,-0.60
2022-12-11T17:27:02.331Z,-0.70
2022-12-11T17:32:06.040Z,-0.70
2022-12-11T17:37:10.970Z,-0.60
2022-12-11T17:42:14.408Z,-0.70
2022-12-11T17:47:17.511Z,-0.80
2022-12-11T17:52:22.040Z,-0.80
2022-12-11T17:57:25.315Z,-1.00
2022-12-11T18:02:28.606Z,-1.10
2022-12-11T18:07:36.684Z,-1.10
2022-12-11T18:12:39.843Z,-1.30
2022-12-11T18:17:43.048Z,-1.20
2022-12-11T18:22:47.695Z,-1.40
2022-12-11T18:27:50.797Z,-1.30
2022-12-11T18:32:54.714Z,-1.30
2022-12-11T18:37:59.698Z,-1.30
2022-12-11T18:43:02.863Z,-1.40
2022-12-11T18:48:07.067Z,-1.40
2022-12-11T18:53:11.870Z,-1.50
2022-12-11T18:58:17.826Z,-1.50
2022-12-11T19:03:21.440Z,-1.40
2022-12-11T19:08:26.871Z,-1.40
2022-12-11T19:13:30.323Z,-1.40
2022-12-11T19:18:33.447Z,-1.40
2022-12-11T19:23:38.067Z,-1.20
2022-12-11T19:28:41.835Z,-1.20
2022-12-11T19:33:46.780Z,-1.30
2022-12-11T19:38:53.624Z,-1.20
2022-12-11T19:44:00.251Z,-1.20
2022-12-11T19:49:04.433Z,-1.20
2022-12-11T19:54:11.830Z,-1.10
2022-12-11T19:59:17.694Z,-1.10
2022-12-11T20:04:20.826Z,-1.20
2022-12-11T20:09:25.434Z,-1.30
2022-12-11T20:14:29.122Z,-1.10
2022-12-11T20:19:32.557Z,-1.10
2022-12-11T20:24:37.550Z,-1.20
2022-12-11T20:29:41.229Z,-1.20
2022-12-11T20:34:45.375Z,-1.20
2022-12-11T20:39:50.002Z,-1.20
2022-12-11T20:44:53.306Z,-1.30
2022-12-11T20:49:56.872Z,-1.30
2022-12-11T20:55:01.732Z,-1.10
2022-12-11T21:00:06.601Z,-1.10
2022-12-11T21:05:10.287Z,-1.10
2022-12-11T21:10:15.370Z,-1.00
2022-12-11T21:15:19.057Z,-1.10
2022-12-11T21:20:22.318Z,-1.00
2022-12-11T21:25:27.264Z,-1.00
2022-12-11T21:30:31.236Z,-0.90
2022-12-11T21:35:34.745Z,-1.00
2022-12-11T21:40:39.487Z,-0.90
2022-12-11T21:51:08.703Z,-0.90
2022-12-11T21:56:18.230Z,-0.90
2022-12-11T22:01:23.467Z,-1.00
2022-12-11T22:06:28.690Z,-1.00
2022-12-11T22:11:34.481Z,-1.00
2022-12-11T22:16:37.794Z,-1.00
2022-12-11T22:21:41.358Z,-1.00
2022-12-11T22:26:45.899Z,-1.00
2022-12-11T22:31:49.639Z,-1.00
2022-12-11T22:36:52.922Z,-1.00
2022-12-11T22:41:59.601Z,-0.90
2022-12-11T22:47:02.971Z,-0.70
2022-12-11T22:52:06.210Z,-0.80
2022-12-11T22:57:10.994Z,-0.80
2022-12-11T23:02:14.370Z,-0.80
2022-12-11T23:07:17.563Z,-0.80
2022-12-11T23:12:23.570Z,-0.90
2022-12-11T23:17:26.908Z,-0.80
2022-12-11T23:22:30.320Z,-0.90
2022-12-11T23:27:33.701Z,-1.00
2022-12-11T23:32:37.104Z,-1.10
2022-12-11T23:37:40.319Z,-1.20
2022-12-11T23:42:44.732Z,-1.20
2022-12-11T23:47:47.796Z,-1.10
2022-12-11T23:52:50.885Z,-1.00
2022-12-11T23:57:56.121Z,-1.10
